Iron Mountain, MI

9:48 PM CDT on April 20, 2015 (GMT -0500)
East Kingsford | | Change Station
CLOSE
Current Station
Personal Weather Station
Location: Kingsford, MI
Elevation: 1112 ft
Nearby Weather Stations

Elev 1112 ft 45.79 °N, 88.05 °W | Updated 3 minutes ago

Overcast
Overcast
35.8 °F
Feels Like 36 °F
N
3.0
Wind Variable Wind from WNW
Gusts 14.0 mph

Today
High -- | Low -- °F
--% Chance of Precip.
Yesterday
High -- | Low -- °F
Precip. -- in
5:57 AM 7:45 PM
Waxing Crescent, 7% visible
Pressure 29.37 in
Visibility 10.0 miles
Clouds Few 2700 ft
Few 3200 ft
Overcast 4400 ft
Windchill 36 °F
Dew Point 32 °F
Humidity 87%
Rainfall 0.72 in
Snow Depth Not available.
UV 0 out of 12
Pollen 4.40 out of 12
Air Quality Not available.
Flu Activity Regional
METAR KIMT 210154Z AUTO 27008G17KT 10SM FEW027 FEW032 OVC044 03/M01 A2933 RMK AO2 SLP944 T00281006 TSNO

More Conditions Fewer Conditions

Pressure 29.37 in
Visibility 10.0 miles
Clouds Few 2700 ft
Few 3200 ft
Overcast 4400 ft
Windchill 36 °F
Dew Point 32 °F
Humidity 87%
Rainfall 0.72 in
Snow Depth Not available.
UV 0 out of 12
Pollen 4.40 out of 12
Air Quality Not available.
Flu Activity Regional
METAR KIMT 210154Z AUTO 27008G17KT 10SM FEW027 FEW032 OVC044 03/M01 A2933 RMK AO2 SLP944 T00281006 TSNO

More Conditions Fewer Conditions

10-Day Weather Forecast

Almanac

Astronomy

Apr. 20, 2015 Rise Set
Actual Time
Civil Twilight
Nautical Twilight
Astronomical Twilight
Moon
Length of Visible Light
Length of Day
Tomorrow will be .
, % of the Moon is Illuminated

Today's Extremes

State Highs State Lows

Community

WunderPhotos

Upload Photos

1,815,283 photos uploaded!

WunderBlogs® & News

Nearby

Air Quality

  Air Quality AQ Index Pollutant
Not available.

Snow Depth

Station Depth Elevation

Earthquake Activity

City Distance Mag. Time & Date
Minimum magnitude displayed is 2.5.

Coastal Water Temperatures

Place Temperature

Stations

Nearby Weather Stations

Station Location Temp. Windchill Dew Point Humidity Wind Precip. Elev Updated Type